createdAt,value
2018-06-05T00:02:26.049Z,17.27
2018-06-05T00:04:54.373Z,18.17
2018-06-05T00:07:22.694Z,18.00
2018-06-05T00:09:51.960Z,19.30
2018-06-05T00:12:20.287Z,18.10
2018-06-05T00:14:48.781Z,18.00
2018-06-05T00:17:18.164Z,18.33
2018-06-05T00:19:47.384Z,18.87
2018-06-05T00:22:16.801Z,17.90
2018-06-05T00:24:45.989Z,16.70
2018-06-05T00:27:15.277Z,17.23
2018-06-05T00:29:44.649Z,18.67
2018-06-05T00:32:12.959Z,17.13
2018-06-05T00:34:41.368Z,19.03
2018-06-05T00:37:10.736Z,16.83
2018-06-05T00:39:40.072Z,18.17
2018-06-05T00:42:08.393Z,20.00
2018-06-05T00:44:37.747Z,19.97
2018-06-05T00:47:06.985Z,19.30
2018-06-05T00:49:36.244Z,19.47
2018-06-05T00:52:06.930Z,18.77
2018-06-05T00:54:36.189Z,20.17
2018-06-05T00:57:04.648Z,20.20
2018-06-05T00:59:33.088Z,19.33
2018-06-05T01:02:02.353Z,19.00
2018-06-05T01:04:31.725Z,21.57
2018-06-05T01:07:00.091Z,22.43
2018-06-05T01:09:29.286Z,23.43
2018-06-05T01:11:58.636Z,22.50
2018-06-05T01:14:27.976Z,22.80
2018-06-05T01:16:56.336Z,22.80
2018-06-05T01:19:25.584Z,23.20
2018-06-05T01:21:53.896Z,23.67
2018-06-05T01:24:22.204Z,23.60
2018-06-05T01:26:50.520Z,24.17
2018-06-05T01:29:18.890Z,22.87
2018-06-05T01:31:48.250Z,23.63
2018-06-05T01:34:16.608Z,21.90
2018-06-05T01:36:44.909Z,24.57
2018-06-05T01:39:14.288Z,23.80
2018-06-05T01:41:42.645Z,24.30
2018-06-05T01:44:10.988Z,25.30
2018-06-05T01:46:39.353Z,24.20
2018-06-05T01:49:07.684Z,25.77
2018-06-05T01:51:36.049Z,29.27
2018-06-05T01:54:04.433Z,28.90
2018-06-05T01:56:32.944Z,26.50
2018-06-05T01:59:01.273Z,26.20
2018-06-05T02:01:29.773Z,28.20
2018-06-05T02:03:58.112Z,26.73
2018-06-05T02:06:26.569Z,29.23
2018-06-05T02:08:55.000Z,28.93
2018-06-05T02:11:23.408Z,29.10
2018-06-05T02:13:51.821Z,30.77
2018-06-05T02:16:20.168Z,27.80
2018-06-05T02:18:48.548Z,27.47
2018-06-05T02:21:16.910Z,27.70
2018-06-05T02:23:45.233Z,29.10
2018-06-05T02:26:13.616Z,30.80
2018-06-05T02:28:41.949Z,31.70
2018-06-05T02:31:10.393Z,29.60
2018-06-05T02:33:38.736Z,30.90
2018-06-05T02:36:07.109Z,28.13
2018-06-05T02:38:35.452Z,27.97
2018-06-05T02:41:03.778Z,30.03
2018-06-05T02:43:32.114Z,30.97
2018-06-05T02:46:00.480Z,29.23
2018-06-05T02:48:28.898Z,28.77
2018-06-05T02:50:57.326Z,29.90
2018-06-05T02:53:25.669Z,32.00
2018-06-05T02:55:54.004Z,29.77
2018-06-05T02:58:22.336Z,29.67
2018-06-05T03:00:50.670Z,31.70
2018-06-05T03:03:19.054Z,30.90
2018-06-05T03:05:47.444Z,30.27
2018-06-05T03:08:15.930Z,29.67
2018-06-05T03:10:44.255Z,29.20
2018-06-05T03:13:12.621Z,31.17
2018-06-05T03:15:40.968Z,27.90
2018-06-05T03:18:09.299Z,29.60
2018-06-05T03:20:37.724Z,27.97
2018-06-05T03:23:06.189Z,28.50
2018-06-05T03:25:34.587Z,27.97
2018-06-05T03:28:02.925Z,27.90
2018-06-05T03:30:31.397Z,28.77
2018-06-05T03:32:59.733Z,30.07
2018-06-05T03:35:28.157Z,26.60
2018-06-05T03:37:56.492Z,29.37
2018-06-05T03:40:24.968Z,29.53
2018-06-05T03:42:53.305Z,30.23
2018-06-05T03:45:21.731Z,31.40
2018-06-05T03:47:50.069Z,32.17
2018-06-05T03:50:18.396Z,31.17
2018-06-05T03:52:46.725Z,31.87
2018-06-05T03:55:15.149Z,30.03
2018-06-05T03:57:43.476Z,31.63
2018-06-05T04:00:11.817Z,30.50
2018-06-05T04:02:40.285Z,29.27
2018-06-05T04:05:08.646Z,27.13
2018-06-05T04:07:37.080Z,27.00
2018-06-05T04:10:05.500Z,29.23
2018-06-05T04:12:33.872Z,30.00
2018-06-05T04:15:02.292Z,27.20
2018-06-05T04:17:30.751Z,27.67
2018-06-05T04:19:59.080Z,28.37
2018-06-05T04:22:27.426Z,28.60
2018-06-05T04:24:55.756Z,27.37
2018-06-05T04:27:24.169Z,27.67
2018-06-05T04:29:52.817Z,27.40
2018-06-05T04:32:21.189Z,26.37
2018-06-05T04:34:49.553Z,25.00
2018-06-05T04:37:17.917Z,24.20
2018-06-05T04:39:46.289Z,24.60
2018-06-05T04:42:14.681Z,23.53
2018-06-05T04:44:43.012Z,23.70
2018-06-05T04:47:11.339Z,24.23
2018-06-05T04:49:39.681Z,23.10
2018-06-05T04:52:08.011Z,22.77
2018-06-05T04:54:36.345Z,22.10
2018-06-05T04:57:04.677Z,19.90
2018-06-05T04:59:33.021Z,21.30
2018-06-05T05:02:01.408Z,20.17
2018-06-05T05:04:29.736Z,19.90
2018-06-05T05:06:58.070Z,21.20
2018-06-05T05:09:26.440Z,21.77
2018-06-05T05:11:54.765Z,19.40
2018-06-05T05:14:23.224Z,19.60
2018-06-05T05:16:51.566Z,19.80
2018-06-05T05:19:19.999Z,21.20
2018-06-05T05:21:48.464Z,19.40
2018-06-05T05:24:16.803Z,19.73
2018-06-05T05:26:45.179Z,17.80
2018-06-05T05:29:13.579Z,17.63
2018-06-05T05:31:41.910Z,17.00
2018-06-05T05:34:10.233Z,17.20
2018-06-05T05:36:38.570Z,18.97
2018-06-05T05:39:07.597Z,19.30
2018-06-05T05:41:35.997Z,18.40
2018-06-05T05:44:04.336Z,18.23
2018-06-05T05:46:32.665Z,17.77
2018-06-05T05:49:01.010Z,17.10
2018-06-05T05:51:29.332Z,18.30
2018-06-05T05:53:57.652Z,17.93
2018-06-05T05:56:26.029Z,16.20
2018-06-05T05:58:54.392Z,18.70
2018-06-05T06:01:22.732Z,18.00
2018-06-05T06:03:51.238Z,16.30
2018-06-05T06:06:19.567Z,17.63
2018-06-05T06:08:47.896Z,17.07
2018-06-05T06:11:16.657Z,16.90
2018-06-05T06:13:44.982Z,16.20
2018-06-05T06:16:13.324Z,16.43
2018-06-05T06:18:41.707Z,14.90
2018-06-05T06:21:10.050Z,16.20
2018-06-05T06:23:38.375Z,16.30
2018-06-05T06:26:06.743Z,17.37
2018-06-05T06:28:35.249Z,15.37
2018-06-05T06:31:03.581Z,16.77
2018-06-05T06:33:32.946Z,17.67
2018-06-05T06:36:01.357Z,17.53
2018-06-05T06:38:29.788Z,14.83
2018-06-05T06:40:58.097Z,14.93
2018-06-05T06:43:26.445Z,14.63
2018-06-05T06:45:54.852Z,13.60
2018-06-05T06:48:23.205Z,14.53
2018-06-05T06:50:51.580Z,15.10
2018-06-05T06:53:19.917Z,12.97
2018-06-05T06:55:48.249Z,14.27
2018-06-05T06:58:16.620Z,13.87
2018-06-05T07:00:44.947Z,15.67
2018-06-05T07:03:13.274Z,14.17
2018-06-05T07:05:41.587Z,14.70
2018-06-05T07:08:09.913Z,13.77
2018-06-05T07:10:38.240Z,14.60
2018-06-05T07:13:06.571Z,14.90
2018-06-05T07:15:34.941Z,14.40
2018-06-05T07:18:03.264Z,13.83
2018-06-05T07:20:31.634Z,13.50
2018-06-05T07:22:59.950Z,13.97
2018-06-05T07:25:28.333Z,13.83
2018-06-05T07:27:56.661Z,13.43
2018-06-05T07:30:25.010Z,14.07
2018-06-05T07:32:53.347Z,14.20
2018-06-05T07:35:21.677Z,15.00
2018-06-05T07:37:50.004Z,14.33
2018-06-05T07:40:18.390Z,13.60
2018-06-05T07:42:46.757Z,13.23
2018-06-05T07:45:15.226Z,12.67
2018-06-05T07:47:43.606Z,13.63
2018-06-05T07:50:12.024Z,15.33
2018-06-05T07:52:40.388Z,15.43
2018-06-05T07:55:08.740Z,14.57
2018-06-05T07:57:37.232Z,14.40
2018-06-05T08:00:05.637Z,15.03
2018-06-05T08:02:34.041Z,15.77
2018-06-05T08:05:02.489Z,17.73
2018-06-05T08:07:30.853Z,15.73
2018-06-05T08:09:59.187Z,14.63
2018-06-05T08:12:27.562Z,15.40
2018-06-05T08:14:55.880Z,15.07
2018-06-05T08:17:24.288Z,14.73
2018-06-05T08:19:52.625Z,14.30
2018-06-05T08:22:20.953Z,16.63
2018-06-05T08:24:49.337Z,14.90
2018-06-05T08:27:17.708Z,16.40
2018-06-05T08:29:46.086Z,12.80
2018-06-05T08:32:16.088Z,14.67
2018-06-05T08:34:44.460Z,15.20
2018-06-05T08:37:12.785Z,16.70
2018-06-05T08:39:41.153Z,14.77
2018-06-05T08:42:09.473Z,15.50
2018-06-05T08:44:38.696Z,13.93
2018-06-05T08:47:07.061Z,14.70
2018-06-05T08:49:36.269Z,14.57
2018-06-05T08:52:04.649Z,13.93
2018-06-05T08:54:32.962Z,13.40
2018-06-05T08:57:01.282Z,15.13
2018-06-05T08:59:29.592Z,15.67
2018-06-05T09:01:58.024Z,13.57
2018-06-05T09:04:26.423Z,17.13
2018-06-05T09:06:54.744Z,15.50
2018-06-05T09:09:23.068Z,13.80
2018-06-05T09:11:51.427Z,15.23
2018-06-05T09:14:19.754Z,20.33
2018-06-05T09:16:48.078Z,16.03
2018-06-05T09:19:16.397Z,14.03
2018-06-05T09:21:44.840Z,15.80
2018-06-05T09:24:13.349Z,17.00
2018-06-05T09:26:41.690Z,35.17
2018-06-05T09:29:10.023Z,16.10
2018-06-05T09:31:38.353Z,15.27
2018-06-05T09:34:06.681Z,19.10
2018-06-05T09:36:35.184Z,18.00
2018-06-05T09:39:03.586Z,22.87
2018-06-05T09:41:31.921Z,14.93
2018-06-05T09:44:00.249Z,15.70
2018-06-05T09:46:28.645Z,23.30
2018-06-05T09:48:57.004Z,18.13
2018-06-05T09:51:25.329Z,17.80
2018-06-05T09:53:53.658Z,22.30
2018-06-05T09:56:21.982Z,15.37
2018-06-05T09:58:50.317Z,14.70
2018-06-05T10:01:18.637Z,38.23
2018-06-05T10:03:47.031Z,15.07
2018-06-05T10:06:15.402Z,16.00
2018-06-05T10:08:43.786Z,15.43
2018-06-05T10:11:12.148Z,16.20
2018-06-05T10:13:40.546Z,16.23
2018-06-05T10:16:08.907Z,15.93
2018-06-05T10:18:37.242Z,15.20
2018-06-05T10:21:05.559Z,15.90
2018-06-05T10:23:33.887Z,16.97
2018-06-05T10:26:02.218Z,15.23
2018-06-05T10:28:30.567Z,16.23
2018-06-05T10:30:58.884Z,17.37
2018-06-05T10:33:27.213Z,13.40
2018-06-05T10:35:55.538Z,14.07
2018-06-05T10:38:23.857Z,15.63
2018-06-05T10:40:52.234Z,16.60
2018-06-05T10:43:20.597Z,15.77
2018-06-05T10:45:48.924Z,18.00
2018-06-05T10:48:17.384Z,17.70
2018-06-05T10:50:45.705Z,16.27
2018-06-05T10:53:14.148Z,18.13
2018-06-05T10:55:42.466Z,18.07
2018-06-05T10:58:10.828Z,16.70
2018-06-05T11:00:39.148Z,16.20
2018-06-05T11:03:07.509Z,15.60
2018-06-05T11:05:35.829Z,18.10
2018-06-05T11:08:04.162Z,18.13
2018-06-05T11:10:32.477Z,17.27
2018-06-05T11:13:00.800Z,16.63
2018-06-05T11:15:29.122Z,16.50
2018-06-05T11:17:57.492Z,16.07
2018-06-05T11:20:25.870Z,18.07
2018-06-05T11:22:54.229Z,18.80
2018-06-05T11:25:22.544Z,15.60
2018-06-05T11:27:50.881Z,18.07
2018-06-05T11:30:19.265Z,17.07
2018-06-05T11:32:47.661Z,17.83
2018-06-05T11:35:15.987Z,18.17
2018-06-05T11:37:44.360Z,17.70
2018-06-05T11:40:13.558Z,18.57
2018-06-05T11:42:41.925Z,18.90
2018-06-05T11:45:10.296Z,19.43
2018-06-05T11:47:38.631Z,19.60
2018-06-05T11:50:07.680Z,17.60
2018-06-05T11:52:35.995Z,18.70
2018-06-05T11:55:04.385Z,19.30
2018-06-05T11:57:32.741Z,19.13
2018-06-05T12:00:01.111Z,17.57
2018-06-05T12:02:29.437Z,17.93
2018-06-05T12:04:57.753Z,19.47
2018-06-05T12:07:26.076Z,18.90
2018-06-05T12:09:54.397Z,17.07
2018-06-05T12:12:22.725Z,16.87
2018-06-05T12:14:51.072Z,17.73
2018-06-05T12:17:19.429Z,16.17
2018-06-05T12:19:47.785Z,17.90
2018-06-05T12:22:16.150Z,16.87
2018-06-05T12:24:44.473Z,17.60
2018-06-05T12:27:12.849Z,18.53
2018-06-05T12:29:41.178Z,18.47
2018-06-05T12:32:09.498Z,19.20
2018-06-05T12:34:37.852Z,20.00
2018-06-05T12:37:06.168Z,18.73
2018-06-05T12:39:34.586Z,18.27
2018-06-05T12:42:02.985Z,16.00
2018-06-05T12:44:31.394Z,15.30
2018-06-05T12:46:59.808Z,16.70
2018-06-05T12:49:28.165Z,16.30
2018-06-05T12:51:56.565Z,17.47
2018-06-05T12:54:24.892Z,17.07
2018-06-05T12:56:53.251Z,15.17
2018-06-05T12:59:21.591Z,15.23
2018-06-05T13:01:49.937Z,14.67
2018-06-05T13:04:18.262Z,15.13
2018-06-05T13:06:46.590Z,15.20
2018-06-05T13:09:14.903Z,14.90
2018-06-05T13:11:43.264Z,14.53
2018-06-05T13:14:12.069Z,14.10
2018-06-05T13:16:40.419Z,14.27
2018-06-05T13:19:08.758Z,14.30
2018-06-05T13:21:37.093Z,13.93
2018-06-05T13:24:05.481Z,14.40
2018-06-05T13:26:33.811Z,13.13
2018-06-05T13:29:02.125Z,13.50
2018-06-05T13:31:30.455Z,14.50
2018-06-05T13:33:58.784Z,14.53
2018-06-05T13:36:27.097Z,13.80
2018-06-05T13:38:55.419Z,13.07
2018-06-05T13:41:23.755Z,14.53
2018-06-05T13:43:52.096Z,14.10
2018-06-05T13:46:20.429Z,14.23
2018-06-05T13:48:48.797Z,14.20
2018-06-05T13:51:17.118Z,14.77
2018-06-05T13:53:45.436Z,26.23
2018-06-05T13:56:13.757Z,14.63
2018-06-05T13:58:42.068Z,12.90
2018-06-05T14:01:11.172Z,12.97
2018-06-05T14:03:39.490Z,12.67
2018-06-05T14:06:07.867Z,13.03
2018-06-05T14:08:36.184Z,12.70
2018-06-05T14:11:04.549Z,10.87
2018-06-05T14:13:32.916Z,10.53
2018-06-05T14:16:01.315Z,13.13
2018-06-05T14:18:29.702Z,12.10
2018-06-05T14:20:58.178Z,10.50
2018-06-05T14:23:26.501Z,11.33
2018-06-05T14:25:54.869Z,12.10
2018-06-05T14:28:23.217Z,10.10
2018-06-05T14:30:51.548Z,12.07
2018-06-05T14:33:20.069Z,10.70
2018-06-05T14:35:48.406Z,10.80
2018-06-05T14:38:16.839Z,9.97
2018-06-05T14:40:45.212Z,10.30
2018-06-05T14:43:13.597Z,9.37
2018-06-05T14:45:41.974Z,9.27
2018-06-05T14:48:10.306Z,8.13
2018-06-05T14:50:38.739Z,8.93
2018-06-05T14:53:07.089Z,7.70
2018-06-05T14:55:35.409Z,7.70
2018-06-05T14:58:03.733Z,8.23
2018-06-05T15:00:32.058Z,7.87
2018-06-05T15:03:00.380Z,7.53
2018-06-05T15:05:28.871Z,9.33
2018-06-05T15:07:57.193Z,8.83
2018-06-05T15:10:25.522Z,7.50
2018-06-05T15:12:53.877Z,7.50
2018-06-05T15:15:22.205Z,8.20
2018-06-05T15:17:50.568Z,8.23
2018-06-05T15:20:18.905Z,7.80
2018-06-05T15:22:47.233Z,8.37
2018-06-05T15:25:15.557Z,8.43
2018-06-05T15:27:43.874Z,8.00
2018-06-05T15:30:12.236Z,7.60
2018-06-05T15:32:40.612Z,7.20
2018-06-05T15:35:08.979Z,7.80
2018-06-05T15:37:37.352Z,7.60
2018-06-05T15:40:05.712Z,8.10
2018-06-05T15:42:34.041Z,7.77
2018-06-05T15:45:02.389Z,7.50
2018-06-05T15:47:30.722Z,7.30
2018-06-05T15:49:59.061Z,7.83
2018-06-05T15:52:27.380Z,8.53
2018-06-05T15:54:56.632Z,7.77
2018-06-05T15:57:24.961Z,8.33
2018-06-05T15:59:53.287Z,8.07
2018-06-05T16:02:21.619Z,9.33
2018-06-05T16:04:49.935Z,7.93
2018-06-05T16:07:18.262Z,8.30
2018-06-05T16:09:46.620Z,10.20
2018-06-05T16:12:14.955Z,10.03
2018-06-05T16:14:43.321Z,9.20
2018-06-05T16:17:11.637Z,10.37
2018-06-05T16:19:39.998Z,9.60
2018-06-05T16:22:09.100Z,10.67
2018-06-05T16:24:37.466Z,9.57
2018-06-05T16:27:05.875Z,9.47
2018-06-05T16:29:34.258Z,10.23
2018-06-05T16:32:02.578Z,10.07
2018-06-05T16:34:30.916Z,10.20
2018-06-05T16:36:59.240Z,10.50
2018-06-05T16:39:27.568Z,9.90
2018-06-05T16:41:55.894Z,10.10
2018-06-05T16:44:24.237Z,9.83
2018-06-05T16:46:52.569Z,9.60
2018-06-05T16:49:20.942Z,9.37
2018-06-05T16:51:49.366Z,9.23
2018-06-05T16:54:18.704Z,9.13
2018-06-05T16:56:47.037Z,10.00
2018-06-05T16:59:15.365Z,9.13
2018-06-05T17:01:43.785Z,10.30
2018-06-05T17:04:12.218Z,8.90
2018-06-05T17:06:40.647Z,9.03
2018-06-05T17:09:09.096Z,9.60
2018-06-05T17:11:37.521Z,10.37
2018-06-05T17:14:05.902Z,10.07
2018-06-05T17:16:34.278Z,9.57
2018-06-05T17:19:02.651Z,9.10
2018-06-05T17:21:31.026Z,10.10
2018-06-05T17:23:59.416Z,9.50
2018-06-05T17:26:27.789Z,9.30
2018-06-05T17:28:56.166Z,9.13
2018-06-05T17:31:24.551Z,9.67
2018-06-05T17:33:52.877Z,9.83
2018-06-05T17:36:21.218Z,9.83
2018-06-05T17:38:49.589Z,9.63
2018-06-05T17:41:18.072Z,11.00
2018-06-05T17:43:46.450Z,9.17
2018-06-05T17:46:14.833Z,9.47
2018-06-05T17:48:43.205Z,9.50
2018-06-05T17:51:11.596Z,10.03
2018-06-05T17:53:40.033Z,11.37
2018-06-05T17:56:08.458Z,8.57
2018-06-05T17:58:36.797Z,9.43
2018-06-05T18:01:05.160Z,9.53
2018-06-05T18:03:33.484Z,9.00
2018-06-05T18:06:01.875Z,10.50
2018-06-05T18:08:30.601Z,10.33
2018-06-05T18:11:00.114Z,10.20
2018-06-05T18:13:29.644Z,10.70
2018-06-05T18:15:58.670Z,10.47
2018-06-05T18:18:28.065Z,11.00
2018-06-05T18:20:56.576Z,10.50
2018-06-05T18:23:25.034Z,10.40
2018-06-05T18:25:53.458Z,10.43
2018-06-05T18:28:21.790Z,10.93
2018-06-05T18:30:52.542Z,10.73
2018-06-05T18:33:23.222Z,10.83
2018-06-05T18:35:51.749Z,10.03
2018-06-05T18:38:20.174Z,13.70
2018-06-05T18:40:48.650Z,9.80
2018-06-05T18:43:17.092Z,6.10
2018-06-05T18:45:45.784Z,5.57
2018-06-05T18:48:14.122Z,4.30
2018-06-05T18:50:42.496Z,4.90
2018-06-05T18:53:11.034Z,3.70
2018-06-05T18:55:39.465Z,3.50
2018-06-05T18:58:07.890Z,2.83
2018-06-05T19:00:37.284Z,3.57
2018-06-05T19:03:05.659Z,3.13
2018-06-05T19:05:33.991Z,2.30
2018-06-05T19:08:02.362Z,2.80
2018-06-05T19:10:31.314Z,2.10
2018-06-05T19:12:59.650Z,2.27
2018-06-05T19:15:28.156Z,1.83
2018-06-05T19:17:56.605Z,2.10
2018-06-05T19:20:25.035Z,1.90
2018-06-05T19:22:53.620Z,1.87
2018-06-05T19:25:21.959Z,1.93
2018-06-05T19:27:50.446Z,1.80
2018-06-05T19:30:18.808Z,1.67
2018-06-05T19:32:47.226Z,1.90
2018-06-05T19:35:16.529Z,1.63
2018-06-05T19:37:44.922Z,1.50
2018-06-05T19:40:13.425Z,1.93
2018-06-05T19:42:41.764Z,1.63
2018-06-05T19:45:10.250Z,1.60
2018-06-05T19:47:38.654Z,1.60
2018-06-05T19:50:07.128Z,2.13
2018-06-05T19:52:35.600Z,2.07
2018-06-05T19:55:04.002Z,1.80
2018-06-05T19:57:32.458Z,1.70
2018-06-05T20:00:00.848Z,2.30
2018-06-05T20:02:29.213Z,1.80
2018-06-05T20:04:57.633Z,1.90
2018-06-05T20:07:25.968Z,1.50
2018-06-05T20:09:54.374Z,1.40
2018-06-05T20:12:22.737Z,1.53
2018-06-05T20:14:51.216Z,1.80
2018-06-05T20:17:19.630Z,1.60
2018-06-05T20:19:47.997Z,1.57
2018-06-05T20:22:16.430Z,1.77
2018-06-05T20:24:44.899Z,1.73
2018-06-05T20:27:13.249Z,1.60
2018-06-05T20:29:41.617Z,1.30
2018-06-05T20:32:09.998Z,1.70
2018-06-05T20:34:38.400Z,2.03
2018-06-05T20:37:06.762Z,1.37
2018-06-05T20:39:35.137Z,1.83
2018-06-05T20:42:03.604Z,1.67
2018-06-05T20:44:31.930Z,1.40
2018-06-05T20:47:00.291Z,2.80
2018-06-05T20:49:28.667Z,1.80
2018-06-05T20:51:57.047Z,1.53
2018-06-05T20:54:25.376Z,2.00
2018-06-05T20:56:53.802Z,1.70
2018-06-05T20:59:22.181Z,1.70
2018-06-05T21:01:50.589Z,1.90
2018-06-05T21:04:18.982Z,1.63
2018-06-05T21:06:47.349Z,1.60
2018-06-05T21:09:15.691Z,1.87
2018-06-05T21:11:44.048Z,1.63
2018-06-05T21:14:12.910Z,1.60
2018-06-05T21:16:41.324Z,1.70
2018-06-05T21:19:09.779Z,1.87
2018-06-05T21:21:38.320Z,1.77
2018-06-05T21:24:06.703Z,1.90
2018-06-05T21:26:35.108Z,1.90
2018-06-05T21:29:03.462Z,1.57
2018-06-05T21:31:31.790Z,1.63
2018-06-05T21:34:00.214Z,1.90
2018-06-05T21:36:28.544Z,1.70
2018-06-05T21:38:56.985Z,2.03
2018-06-05T21:41:25.357Z,1.80
2018-06-05T21:43:53.730Z,1.87
2018-06-05T21:46:22.429Z,1.90
2018-06-05T21:48:50.799Z,1.80
2018-06-05T21:51:19.130Z,1.97
2018-06-05T21:53:47.612Z,1.80
2018-06-05T21:56:15.985Z,2.00
2018-06-05T21:58:44.317Z,1.80
2018-06-05T22:01:12.706Z,2.10
2018-06-05T22:03:41.033Z,1.90
2018-06-05T22:06:09.429Z,1.90
2018-06-05T22:08:37.782Z,1.73
2018-06-05T22:11:06.158Z,2.40
2018-06-05T22:13:34.486Z,1.70
2018-06-05T22:16:02.853Z,1.77
2018-06-05T22:18:31.236Z,2.00
2018-06-05T22:20:59.560Z,1.90
2018-06-05T22:23:27.922Z,1.90
2018-06-05T22:25:56.237Z,2.30
2018-06-05T22:28:24.608Z,2.10
2018-06-05T22:30:52.928Z,1.70
2018-06-05T22:33:21.290Z,2.00
2018-06-05T22:35:49.701Z,1.43
2018-06-05T22:38:18.015Z,2.70
2018-06-05T22:40:46.326Z,1.93
2018-06-05T22:43:14.689Z,2.70
2018-06-05T22:45:43.020Z,2.13
2018-06-05T22:48:11.409Z,1.60
2018-06-05T22:50:39.842Z,2.00
2018-06-05T22:53:08.165Z,1.77
2018-06-05T22:55:36.554Z,1.80
2018-06-05T22:58:04.921Z,1.80
2018-06-05T23:00:34.075Z,1.80
2018-06-05T23:03:02.510Z,2.03
2018-06-05T23:05:30.833Z,1.87
2018-06-05T23:07:59.162Z,2.10
2018-06-05T23:10:27.477Z,2.03
2018-06-05T23:12:55.793Z,1.80
2018-06-05T23:15:24.120Z,1.80
2018-06-05T23:17:52.470Z,1.90
2018-06-05T23:20:20.905Z,1.83
2018-06-05T23:22:49.230Z,1.80
2018-06-05T23:25:17.613Z,2.10
2018-06-05T23:27:45.942Z,1.87
2018-06-05T23:30:14.249Z,2.13
2018-06-05T23:32:42.573Z,1.83
2018-06-05T23:35:10.906Z,2.23
2018-06-05T23:37:39.229Z,1.83
2018-06-05T23:40:07.558Z,1.97
2018-06-05T23:42:35.938Z,2.30
2018-06-05T23:45:04.350Z,2.00
2018-06-05T23:47:32.679Z,2.13
2018-06-05T23:50:01.023Z,2.30
2018-06-05T23:52:29.336Z,1.93
2018-06-05T23:54:57.741Z,1.93
2018-06-05T23:57:26.068Z,1.77
2018-06-05T23:59:54.386Z,2.10
